Time;durP1;ratioP1;P1;durP2;ratioP2;P2;SDS_P1;SDS_P2;PMS_P1;PMS_P2;Temp;Humidity;BMP_temperature;BMP_pressure;BME280_temperature;BME280_humidity;BME280_pressure;Samples;Min_cycle;Max_cycle;Signal;HPM_P1;HPM_P2
2022/05/31 00:01:23;;;;;;;18.17;16.20;;;;;;;;;;4932317;28;20170;-41
2022/05/31 00:03:49;;;;;;;21.30;15.43;;;;;;;;;;4943073;28;20674;-41
2022/05/31 00:06:16;;;;;;;20.53;17.43;;;;;;;;;;4940370;28;20226;-43
2022/05/31 00:08:42;;;;;;;22.33;17.70;;;;;;;;;;4937028;28;20191;-41
2022/05/31 00:11:09;;;;;;;26.70;21.03;;;;;;;;;;4943079;28;20440;-41
2022/05/31 00:13:35;;;;;;;34.87;29.87;;;;;;;;;;4938605;28;20242;-42
2022/05/31 00:16:01;;;;;;;36.90;30.07;;;;;;;;;;4937740;28;20709;-42
2022/05/31 00:18:27;;;;;;;30.93;26.90;;;;;;;;;;4940583;28;20263;-42
2022/05/31 00:20:53;;;;;;;37.93;31.43;;;;;;;;;;4940931;28;20288;-41
2022/05/31 00:23:20;;;;;;;37.23;31.50;;;;;;;;;;4940249;28;20886;-42
2022/05/31 00:25:46;;;;;;;44.43;37.43;;;;;;;;;;4934725;28;20632;-42
2022/05/31 00:28:12;;;;;;;35.97;30.20;;;;;;;;;;4939589;28;20187;-42
2022/05/31 00:30:39;;;;;;;37.03;31.23;;;;;;;;;;4933349;28;20624;-41
2022/05/31 00:33:06;;;;;;;40.23;34.47;;;;;;;;;;4941465;28;20498;-42
2022/05/31 00:35:33;;;;;;;42.27;35.77;;;;;;;;;;4940839;28;20671;-41
2022/05/31 00:37:59;;;;;;;38.70;33.00;;;;;;;;;;4940163;28;20501;-41
2022/05/31 00:40:27;;;;;;;49.30;39.87;;;;;;;;;;4940814;28;20571;-41
2022/05/31 00:42:57;;;;;;;41.43;35.13;;;;;;;;;;4936430;28;20284;-41
2022/05/31 00:45:25;;;;;;;43.87;36.83;;;;;;;;;;4941814;28;20378;-42
2022/05/31 00:47:52;;;;;;;38.43;34.13;;;;;;;;;;4942594;28;20545;-41
2022/05/31 00:50:41;;;;;;;31.30;27.60;;;;;;;;;;4938536;28;20543;-41
2022/05/31 00:53:27;;;;;;;34.33;29.70;;;;;;;;;;4923062;28;20221;-41
2022/05/31 00:55:55;;;;;;;37.93;30.40;;;;;;;;;;4944025;28;21052;-42
2022/05/31 00:58:32;;;;;;;35.73;29.27;;;;;;;;;;4937957;28;20194;-42
2022/05/31 01:01:00;;;;;;;41.33;35.23;;;;;;;;;;4933753;28;20178;-42
2022/05/31 01:03:26;;;;;;;49.03;38.43;;;;;;;;;;4939396;28;20183;-42
2022/05/31 01:05:52;;;;;;;40.73;36.17;;;;;;;;;;4940424;28;20194;-42
2022/05/31 01:08:18;;;;;;;41.10;34.13;;;;;;;;;;4934053;28;20702;-41
2022/05/31 01:10:45;;;;;;;35.00;30.73;;;;;;;;;;4936032;28;20634;-41
2022/05/31 01:15:51;;;;;;;35.63;30.53;;;;;;;;;;5086170;27;20679;-42
2022/05/31 01:18:17;;;;;;;31.50;28.10;;;;;;;;;;5083068;27;20738;-42
2022/05/31 01:20:43;;;;;;;28.27;25.27;;;;;;;;;;5081415;27;20185;-44
2022/05/31 01:23:14;;;;;;;38.60;31.83;;;;;;;;;;5086307;27;20584;-42
2022/05/31 01:25:46;;;;;;;37.43;31.83;;;;;;;;;;5081101;27;20525;-42
2022/05/31 01:28:12;;;;;;;44.87;35.50;;;;;;;;;;5082271;27;20169;-43
2022/05/31 01:30:42;;;;;;;39.27;34.20;;;;;;;;;;5085984;27;20175;-42
2022/05/31 01:33:08;;;;;;;36.90;29.50;;;;;;;;;;5078520;27;20175;-43
2022/05/31 01:35:35;;;;;;;30.47;27.20;;;;;;;;;;5084292;27;20209;-43
2022/05/31 01:38:20;;;;;;;37.37;31.37;;;;;;;;;;5083086;27;20375;-42
2022/05/31 01:40:49;;;;;;;32.70;28.83;;;;;;;;;;5082406;27;20224;-43
2022/05/31 01:43:16;;;;;;;32.37;27.97;;;;;;;;;;5085157;27;20468;-43
2022/05/31 01:45:55;;;;;;;34.37;30.67;;;;;;;;;;5088756;27;20312;-43
2022/05/31 01:48:22;;;;;;;34.00;29.57;;;;;;;;;;5081755;27;20347;-42
2022/05/31 01:50:48;;;;;;;32.43;26.97;;;;;;;;;;5084287;27;20516;-42
2022/05/31 01:53:14;;;;;;;30.07;26.73;;;;;;;;;;5081470;27;20177;-43
2022/05/31 01:55:43;;;;;;;33.10;28.90;;;;;;;;;;5082668;27;21572;-43
2022/05/31 01:58:13;;;;;;;26.57;23.30;;;;;;;;;;5086984;27;20174;-44
2022/05/31 02:00:39;;;;;;;26.17;22.90;;;;;;;;;;5084012;27;20289;-43
2022/05/31 02:03:06;;;;;;;24.93;22.30;;;;;;;;;;5078845;27;20475;-43
2022/05/31 02:05:32;;;;;;;25.67;22.30;;;;;;;;;;5085702;27;20385;-43
2022/05/31 02:08:00;;;;;;;25.67;22.07;;;;;;;;;;5079818;27;20175;-44
2022/05/31 02:10:27;;;;;;;29.97;24.07;;;;;;;;;;5082708;27;20535;-44
2022/05/31 02:12:53;;;;;;;27.30;21.87;;;;;;;;;;5085511;27;20181;-43
2022/05/31 02:15:19;;;;;;;26.40;21.13;;;;;;;;;;5080861;27;20271;-44
2022/05/31 02:17:46;;;;;;;28.67;24.70;;;;;;;;;;5082757;27;20166;-43
2022/05/31 02:20:12;;;;;;;27.73;24.37;;;;;;;;;;5079404;27;20167;-44
2022/05/31 02:22:38;;;;;;;29.73;25.40;;;;;;;;;;5084871;27;20170;-43
2022/05/31 02:25:04;;;;;;;26.80;22.27;;;;;;;;;;5081393;27;20225;-44
2022/05/31 02:27:30;;;;;;;32.53;25.23;;;;;;;;;;5063265;27;20202;-44
2022/05/31 02:29:56;;;;;;;34.23;27.80;;;;;;;;;;5070132;28;20285;-44
2022/05/31 02:32:22;;;;;;;31.30;24.73;;;;;;;;;;5072534;27;20642;-43
2022/05/31 02:34:49;;;;;;;33.30;26.03;;;;;;;;;;5067198;27;20198;-43
2022/05/31 02:37:16;;;;;;;37.00;27.50;;;;;;;;;;5064404;28;20163;-43
2022/05/31 02:39:42;;;;;;;33.67;26.10;;;;;;;;;;5068479;27;20173;-43
2022/05/31 02:42:09;;;;;;;31.73;27.00;;;;;;;;;;5073420;27;20985;-43
2022/05/31 02:44:35;;;;;;;39.23;27.40;;;;;;;;;;5065746;27;20174;-42
2022/05/31 02:47:02;;;;;;;30.50;25.23;;;;;;;;;;5065889;27;20170;-44
2022/05/31 02:49:28;;;;;;;34.70;24.73;;;;;;;;;;5072397;27;20206;-43
2022/05/31 02:51:55;;;;;;;36.27;29.30;;;;;;;;;;5067234;28;20661;-44
2022/05/31 02:54:21;;;;;;;33.00;24.53;;;;;;;;;;5071484;28;20194;-42
2022/05/31 02:56:47;;;;;;;28.87;24.03;;;;;;;;;;5074906;28;20274;-43
2022/05/31 02:59:13;;;;;;;32.47;24.20;;;;;;;;;;5070376;28;20267;-44
2022/05/31 03:01:40;;;;;;;46.13;29.57;;;;;;;;;;5068092;28;20927;-41
2022/05/31 03:04:07;;;;;;;34.60;26.40;;;;;;;;;;5071335;28;20931;-42
2022/05/31 03:06:33;;;;;;;32.17;24.37;;;;;;;;;;5066446;27;20180;-42
2022/05/31 03:08:59;;;;;;;42.60;29.17;;;;;;;;;;5063997;27;20743;-41
2022/05/31 03:11:31;;;;;;;40.27;29.57;;;;;;;;;;5070082;27;20286;-42
2022/05/31 03:14:01;;;;;;;38.97;27.60;;;;;;;;;;5066395;27;20316;-42
2022/05/31 03:16:28;;;;;;;34.13;26.63;;;;;;;;;;5066626;28;20774;-43
2022/05/31 03:18:58;;;;;;;33.50;25.63;;;;;;;;;;5069742;27;20178;-42
2022/05/31 03:21:26;;;;;;;33.53;25.67;;;;;;;;;;5065031;27;20183;-42
2022/05/31 03:23:55;;;;;;;34.97;26.67;;;;;;;;;;5064955;27;20267;-42
2022/05/31 03:26:23;;;;;;;29.50;24.10;;;;;;;;;;5071832;28;20257;-40
2022/05/31 03:28:49;;;;;;;34.60;26.60;;;;;;;;;;5065988;28;20671;-41
2022/05/31 03:31:15;;;;;;;38.00;27.43;;;;;;;;;;5067396;27;20181;-42
2022/05/31 03:33:41;;;;;;;32.13;26.17;;;;;;;;;;5071225;28;20578;-42
2022/05/31 03:36:08;;;;;;;32.50;24.40;;;;;;;;;;5066049;28;20574;-41
2022/05/31 03:38:34;;;;;;;29.20;22.77;;;;;;;;;;5067496;27;20250;-42
2022/05/31 03:41:00;;;;;;;29.87;23.93;;;;;;;;;;5069188;27;20307;-41
2022/05/31 03:43:28;;;;;;;28.93;24.87;;;;;;;;;;5066436;27;20252;-41
2022/05/31 03:45:54;;;;;;;39.53;29.27;;;;;;;;;;5064856;27;20510;-41
2022/05/31 03:48:20;;;;;;;35.20;28.17;;;;;;;;;;5069422;27;20796;-41
2022/05/31 03:50:56;;;;;;;37.70;28.37;;;;;;;;;;5066487;27;20550;-42
2022/05/31 03:53:22;;;;;;;36.20;29.00;;;;;;;;;;5063719;28;20446;-41
2022/05/31 03:55:49;;;;;;;38.87;28.20;;;;;;;;;;5067863;28;20236;-42
2022/05/31 03:58:15;;;;;;;31.37;26.13;;;;;;;;;;5070731;28;20181;-40
2022/05/31 04:00:41;;;;;;;40.37;31.20;;;;;;;;;;5065046;28;20935;-42
2022/05/31 04:03:07;;;;;;;35.20;28.37;;;;;;;;;;5064864;27;20647;-42
2022/05/31 04:05:33;;;;;;;30.50;24.90;;;;;;;;;;5070459;28;20170;-42
2022/05/31 04:08:04;;;;;;;36.77;31.00;;;;;;;;;;5066384;27;20177;-40
2022/05/31 04:10:31;;;;;;;38.97;29.70;;;;;;;;;;5064619;27;20189;-41
2022/05/31 04:12:57;;;;;;;46.73;31.10;;;;;;;;;;5066179;28;20939;-41
2022/05/31 04:15:23;;;;;;;49.00;31.63;;;;;;;;;;5067644;27;20202;-42
2022/05/31 04:17:49;;;;;;;40.83;33.40;;;;;;;;;;5062692;28;20170;-42
2022/05/31 04:20:15;;;;;;;42.53;33.23;;;;;;;;;;5065377;27;20409;-42
2022/05/31 04:22:41;;;;;;;42.33;33.20;;;;;;;;;;5068955;28;20170;-42
2022/05/31 04:25:07;;;;;;;48.47;35.90;;;;;;;;;;5063873;28;20618;-42
2022/05/31 04:27:33;;;;;;;57.17;38.10;;;;;;;;;;5067029;27;20653;-42
2022/05/31 04:29:59;;;;;;;42.27;31.83;;;;;;;;;;5069266;27;20607;-42
2022/05/31 04:32:25;;;;;;;39.60;32.70;;;;;;;;;;5065977;28;20173;-41
2022/05/31 04:34:52;;;;;;;44.23;33.20;;;;;;;;;;5067383;27;20722;-42
2022/05/31 04:37:19;;;;;;;42.77;32.47;;;;;;;;;;5066797;28;20683;-42
2022/05/31 04:39:45;;;;;;;43.23;34.50;;;;;;;;;;5064058;28;20610;-41
2022/05/31 04:42:11;;;;;;;39.90;32.43;;;;;;;;;;5068990;27;20163;-42
2022/05/31 04:44:37;;;;;;;47.07;33.93;;;;;;;;;;5068323;28;20174;-42
2022/05/31 04:47:04;;;;;;;47.00;35.97;;;;;;;;;;5058236;28;20788;-40
2022/05/31 04:49:30;;;;;;;45.90;35.60;;;;;;;;;;5067566;28;20171;-42
2022/05/31 04:51:56;;;;;;;49.73;35.20;;;;;;;;;;5068464;27;20673;-42
2022/05/31 04:54:24;;;;;;;50.13;37.17;;;;;;;;;;5062636;28;20194;-42
2022/05/31 04:56:52;;;;;;;50.87;38.53;;;;;;;;;;5067418;28;20173;-40
2022/05/31 04:59:19;;;;;;;45.13;35.33;;;;;;;;;;5069154;28;20169;-42
2022/05/31 05:01:45;;;;;;;45.90;35.27;;;;;;;;;;5068351;28;20177;-42
2022/05/31 05:04:11;;;;;;;48.30;35.40;;;;;;;;;;5067320;28;20260;-40
2022/05/31 05:06:37;;;;;;;36.87;30.87;;;;;;;;;;5064039;28;20213;-42
2022/05/31 05:09:04;;;;;;;42.93;33.53;;;;;;;;;;5068554;28;20605;-42
2022/05/31 05:11:32;;;;;;;40.00;32.53;;;;;;;;;;5069456;28;20482;-41
2022/05/31 05:13:58;;;;;;;41.57;34.37;;;;;;;;;;5068869;28;20682;-40
2022/05/31 05:16:24;;;;;;;46.70;34.53;;;;;;;;;;5064626;28;20217;-41
2022/05/31 05:18:51;;;;;;;50.13;37.87;;;;;;;;;;5069393;28;20233;-42
2022/05/31 05:21:17;;;;;;;47.83;35.00;;;;;;;;;;5064613;28;20257;-40
2022/05/31 05:23:44;;;;;;;47.83;36.33;;;;;;;;;;5069196;28;20205;-42
2022/05/31 05:26:10;;;;;;;55.40;39.93;;;;;;;;;;5064119;28;20166;-42
2022/05/31 05:31:22;;;;;;;56.63;42.67;;;;;;;;;;5063747;28;20527;-42
2022/05/31 05:33:48;;;;;;;50.13;37.83;;;;;;;;;;5065169;28;20620;-41
2022/05/31 05:36:14;;;;;;;57.93;41.63;;;;;;;;;;5067997;28;20190;-41
2022/05/31 05:38:40;;;;;;;53.00;40.43;;;;;;;;;;5068727;28;20191;-41
2022/05/31 05:41:06;;;;;;;64.80;42.20;;;;;;;;;;5067810;28;20210;-42
2022/05/31 05:43:32;;;;;;;67.73;46.87;;;;;;;;;;5067633;28;20436;-42
2022/05/31 05:45:59;;;;;;;69.70;47.73;;;;;;;;;;5069880;28;20438;-42
2022/05/31 05:48:25;;;;;;;71.03;47.73;;;;;;;;;;5070230;28;20618;-42
2022/05/31 05:50:51;;;;;;;60.37;43.13;;;;;;;;;;5066161;28;20637;-42
2022/05/31 05:53:18;;;;;;;69.23;45.47;;;;;;;;;;5071086;28;20171;-42
2022/05/31 05:55:44;;;;;;;65.23;45.67;;;;;;;;;;5072131;28;20207;-42
2022/05/31 05:58:10;;;;;;;61.13;43.93;;;;;;;;;;5071863;28;20987;-42
2022/05/31 06:00:43;;;;;;;65.77;46.73;;;;;;;;;;5070875;28;20178;-42
2022/05/31 06:03:17;;;;;;;66.50;44.10;;;;;;;;;;5074898;28;20170;-41
2022/05/31 06:05:44;;;;;;;60.93;43.70;;;;;;;;;;5075019;27;20282;-42
2022/05/31 06:08:12;;;;;;;64.63;44.77;;;;;;;;;;5075762;28;20186;-42
2022/05/31 06:10:42;;;;;;;62.70;45.40;;;;;;;;;;5076043;27;20167;-42
2022/05/31 06:13:12;;;;;;;56.87;43.47;;;;;;;;;;5075318;28;20985;-42
2022/05/31 06:15:41;;;;;;;56.77;41.60;;;;;;;;;;5074513;27;20885;-42
2022/05/31 06:18:10;;;;;;;58.37;44.47;;;;;;;;;;5076081;27;20206;-41
2022/05/31 06:20:37;;;;;;;53.30;39.60;;;;;;;;;;5072080;28;20171;-41
2022/05/31 06:23:03;;;;;;;48.27;38.03;;;;;;;;;;5077068;27;20479;-41
2022/05/31 06:25:29;;;;;;;42.90;32.30;;;;;;;;;;5074297;27;20479;-42
2022/05/31 06:27:55;;;;;;;39.10;31.53;;;;;;;;;;5068916;28;20185;-42
2022/05/31 06:30:21;;;;;;;37.73;31.53;;;;;;;;;;5072430;28;20206;-42
2022/05/31 06:32:48;;;;;;;39.17;30.13;;;;;;;;;;5074488;28;20209;-44
2022/05/31 06:35:17;;;;;;;34.90;29.57;;;;;;;;;;5073733;28;20206;-42
2022/05/31 06:37:43;;;;;;;38.33;30.93;;;;;;;;;;5076459;28;20785;-41
2022/05/31 06:40:09;;;;;;;39.10;31.13;;;;;;;;;;5077309;28;20180;-42
2022/05/31 06:42:35;;;;;;;43.00;33.63;;;;;;;;;;5071983;28;21035;-42
2022/05/31 06:45:02;;;;;;;38.93;30.90;;;;;;;;;;5072900;28;20209;-42
2022/05/31 06:47:28;;;;;;;39.97;29.70;;;;;;;;;;5073781;27;20595;-43
2022/05/31 06:49:54;;;;;;;38.37;28.53;;;;;;;;;;5073328;28;20199;-43
2022/05/31 06:57:50;;;;;;;43.90;33.63;;;;;;;;;;5071548;28;20233;-42
2022/05/31 07:00:18;;;;;;;43.83;35.53;;;;;;;;;;5070265;28;20178;-42
2022/05/31 07:02:45;;;;;;;45.17;34.93;;;;;;;;;;5073222;27;20174;-42
2022/05/31 07:05:12;;;;;;;42.67;34.07;;;;;;;;;;5070276;27;20618;-42
2022/05/31 07:07:38;;;;;;;43.50;33.63;;;;;;;;;;5070291;28;20210;-42
2022/05/31 07:10:06;;;;;;;48.20;35.07;;;;;;;;;;5073824;27;20603;-42
2022/05/31 07:12:32;;;;;;;52.50;38.40;;;;;;;;;;5070689;28;20261;-42
2022/05/31 07:14:59;;;;;;;51.10;38.03;;;;;;;;;;5068359;27;20710;-43
2022/05/31 07:17:25;;;;;;;45.73;34.83;;;;;;;;;;5071717;27;20883;-42
2022/05/31 07:19:51;;;;;;;46.23;34.63;;;;;;;;;;5071305;28;20472;-42
2022/05/31 07:22:17;;;;;;;53.20;38.90;;;;;;;;;;5072822;28;20395;-43
2022/05/31 07:24:43;;;;;;;48.03;37.10;;;;;;;;;;5069056;28;20702;-43
2022/05/31 07:27:09;;;;;;;47.40;36.83;;;;;;;;;;5074558;27;20185;-43
2022/05/31 07:29:35;;;;;;;47.80;36.47;;;;;;;;;;5074813;28;20182;-42
2022/05/31 07:32:02;;;;;;;49.23;37.30;;;;;;;;;;5072861;28;20760;-43
2022/05/31 07:34:28;;;;;;;50.73;38.63;;;;;;;;;;5068548;28;20191;-43
2022/05/31 07:36:54;;;;;;;45.63;36.27;;;;;;;;;;5073637;28;20941;-43
2022/05/31 07:39:21;;;;;;;46.13;36.63;;;;;;;;;;5072038;27;20664;-42
2022/05/31 07:41:48;;;;;;;55.03;38.63;;;;;;;;;;5067312;27;20175;-43
2022/05/31 07:44:18;;;;;;;46.93;36.17;;;;;;;;;;5070948;27;20708;-41
2022/05/31 07:46:44;;;;;;;48.13;36.83;;;;;;;;;;5079259;28;20246;-43
2022/05/31 07:49:10;;;;;;;50.50;36.87;;;;;;;;;;5072435;27;20974;-41
2022/05/31 07:51:36;;;;;;;49.53;36.80;;;;;;;;;;5070350;27;20178;-43
2022/05/31 07:54:02;;;;;;;46.30;36.07;;;;;;;;;;5079426;28;20186;-43
2022/05/31 07:56:29;;;;;;;45.17;34.30;;;;;;;;;;5076082;28;20231;-43
2022/05/31 07:58:55;;;;;;;43.43;35.90;;;;;;;;;;5072906;27;20618;-43
2022/05/31 08:01:25;;;;;;;46.40;35.83;;;;;;;;;;5069004;28;20171;-43
2022/05/31 08:03:51;;;;;;;47.30;37.30;;;;;;;;;;5070719;28;20251;-43
2022/05/31 08:06:18;;;;;;;40.37;34.80;;;;;;;;;;5073688;28;20739;-43
2022/05/31 08:08:45;;;;;;;44.00;34.43;;;;;;;;;;5073928;28;20185;-42
2022/05/31 08:11:15;;;;;;;41.03;32.60;;;;;;;;;;5069592;28;20178;-43
2022/05/31 08:13:42;;;;;;;41.80;34.23;;;;;;;;;;5070637;28;20174;-43
2022/05/31 08:16:09;;;;;;;49.63;39.63;;;;;;;;;;5075518;27;20205;-43
2022/05/31 08:18:36;;;;;;;43.27;34.73;;;;;;;;;;5070424;28;20609;-43
2022/05/31 08:21:03;;;;;;;49.57;38.13;;;;;;;;;;5068975;28;20178;-43
2022/05/31 08:23:29;;;;;;;43.87;36.13;;;;;;;;;;5068311;27;20179;-43
2022/05/31 08:25:56;;;;;;;42.20;32.83;;;;;;;;;;5068873;28;20182;-43
2022/05/31 08:28:22;;;;;;;47.23;35.53;;;;;;;;;;5066421;28;20421;-43
2022/05/31 08:31:00;;;;;;;41.77;31.67;;;;;;;;;;5072524;27;20174;-42
2022/05/31 08:33:27;;;;;;;46.63;35.83;;;;;;;;;;5073835;28;20269;-43
2022/05/31 08:35:53;;;;;;;45.17;35.53;;;;;;;;;;5075312;28;20877;-43
2022/05/31 08:38:19;;;;;;;43.33;34.10;;;;;;;;;;5072070;28;20197;-43
2022/05/31 08:40:48;;;;;;;47.83;35.43;;;;;;;;;;5071487;28;21160;-42
2022/05/31 08:43:18;;;;;;;46.37;34.93;;;;;;;;;;5072642;28;20625;-43
2022/05/31 08:45:47;;;;;;;49.23;35.73;;;;;;;;;;5068747;28;20405;-43
2022/05/31 08:48:30;;;;;;;35.77;29.50;;;;;;;;;;5067802;28;20178;-43
2022/05/31 08:56:56;;;;;;;38.37;30.73;;;;;;;;;;5068068;28;20200;-43
2022/05/31 08:59:41;;;;;;;38.03;28.80;;;;;;;;;;5070035;28;20675;-43
2022/05/31 09:02:17;;;;;;;40.77;30.03;;;;;;;;;;5068906;28;20175;-43
2022/05/31 09:04:46;;;;;;;36.00;30.37;;;;;;;;;;5069197;28;20177;-43
2022/05/31 09:07:25;;;;;;;42.47;31.57;;;;;;;;;;5073627;28;20170;-43
2022/05/31 09:10:04;;;;;;;41.47;31.40;;;;;;;;;;5068660;27;20663;-43
2022/05/31 09:12:36;;;;;;;35.30;28.17;;;;;;;;;;5066921;28;20175;-43
2022/05/31 09:15:10;;;;;;;39.40;30.00;;;;;;;;;;5070593;28;20316;-43
2022/05/31 09:17:36;;;;;;;33.77;26.43;;;;;;;;;;5071447;28;20168;-43
2022/05/31 09:20:04;;;;;;;32.03;26.90;;;;;;;;;;5068632;28;20244;-43
2022/05/31 09:22:30;;;;;;;33.83;25.67;;;;;;;;;;5067988;28;20646;-43
2022/05/31 09:24:57;;;;;;;28.17;24.80;;;;;;;;;;5071229;28;20822;-43
2022/05/31 09:27:26;;;;;;;32.10;24.93;;;;;;;;;;5071822;28;20281;-44
2022/05/31 09:30:04;;;;;;;27.37;23.40;;;;;;;;;;5068714;28;20669;-43
2022/05/31 09:32:36;;;;;;;31.40;24.70;;;;;;;;;;5069679;28;20543;-43
2022/05/31 09:35:07;;;;;;;30.80;24.63;;;;;;;;;;5069683;28;20525;-43
2022/05/31 09:37:36;;;;;;;27.17;23.07;;;;;;;;;;5071556;28;20185;-44
2022/05/31 09:40:21;;;;;;;28.47;23.87;;;;;;;;;;5073143;28;20231;-43
2022/05/31 09:43:05;;;;;;;27.33;23.10;;;;;;;;;;5075256;28;21009;-43
2022/05/31 09:45:33;;;;;;;25.97;21.67;;;;;;;;;;5076340;28;20263;-44
2022/05/31 09:48:01;;;;;;;25.43;21.30;;;;;;;;;;5076837;28;20695;-44
2022/05/31 09:50:28;;;;;;;24.87;19.17;;;;;;;;;;5072025;27;20174;-43
2022/05/31 09:52:58;;;;;;;24.37;18.20;;;;;;;;;;5071713;27;20171;-43
2022/05/31 09:58:21;;;;;;;22.20;18.23;;;;;;;;;;5075057;28;20894;-44
2022/05/31 10:01:05;;;;;;;23.33;19.67;;;;;;;;;;5073791;27;20248;-44
2022/05/31 10:03:34;;;;;;;21.90;17.17;;;;;;;;;;5078240;28;20178;-44
2022/05/31 10:06:15;;;;;;;20.87;16.33;;;;;;;;;;5076062;27;20178;-43
2022/05/31 10:08:41;;;;;;;20.33;16.53;;;;;;;;;;5071835;27;20238;-44
2022/05/31 10:11:27;;;;;;;18.90;16.10;;;;;;;;;;5073912;28;20208;-44
2022/05/31 10:13:58;;;;;;;22.60;17.10;;;;;;;;;;5077224;27;20425;-44
2022/05/31 10:16:24;;;;;;;21.77;19.10;;;;;;;;;;5072789;28;20698;-44
2022/05/31 10:18:55;;;;;;;19.43;15.77;;;;;;;;;;5073731;28;20177;-43
2022/05/31 10:21:30;;;;;;;20.70;16.67;;;;;;;;;;5075461;27;21089;-43
2022/05/31 10:24:00;;;;;;;21.87;16.67;;;;;;;;;;5074443;28;20820;-44
2022/05/31 10:26:27;;;;;;;17.93;15.33;;;;;;;;;;5074678;27;20174;-44
2022/05/31 10:28:57;;;;;;;17.07;14.73;;;;;;;;;;5069749;28;20827;-44
2022/05/31 10:31:32;;;;;;;21.60;16.40;;;;;;;;;;5076713;28;20175;-44
2022/05/31 10:33:59;;;;;;;21.20;16.57;;;;;;;;;;5077263;28;20715;-43
2022/05/31 10:36:27;;;;;;;22.80;16.33;;;;;;;;;;5072010;28;20188;-44
2022/05/31 10:38:54;;;;;;;21.80;15.90;;;;;;;;;;5071238;28;21100;-44
2022/05/31 10:41:29;;;;;;;20.57;17.53;;;;;;;;;;5073824;28;20709;-44
2022/05/31 10:44:14;;;;;;;21.47;14.97;;;;;;;;;;5073147;28;20812;-44
2022/05/31 10:46:43;;;;;;;19.13;14.57;;;;;;;;;;5072054;27;20651;-44
2022/05/31 10:49:16;;;;;;;20.13;15.63;;;;;;;;;;5078193;28;20349;-44
2022/05/31 10:52:01;;;;;;;18.83;14.70;;;;;;;;;;5073849;28;20723;-44
2022/05/31 10:54:33;;;;;;;19.77;14.73;;;;;;;;;;5071644;27;20205;-44
2022/05/31 10:57:18;;;;;;;21.17;15.30;;;;;;;;;;5072481;28;20171;-44
2022/05/31 10:59:47;;;;;;;19.00;13.40;;;;;;;;;;5074296;28;20573;-44
2022/05/31 11:02:31;;;;;;;18.03;13.70;;;;;;;;;;5073902;28;20329;-44
2022/05/31 11:05:02;;;;;;;17.60;12.83;;;;;;;;;;5074599;28;20174;-44
2022/05/31 11:07:34;;;;;;;19.73;14.80;;;;;;;;;;5074577;28;20592;-44
2022/05/31 11:13:06;;;;;;;15.73;10.77;;;;;;;;;;5075239;27;20274;-44
2022/05/31 11:15:45;;;;;;;13.53;9.93;;;;;;;;;;5073523;28;20737;-44
2022/05/31 11:18:31;;;;;;;16.83;10.73;;;;;;;;;;5072954;28;20476;-44
2022/05/31 11:21:17;;;;;;;15.33;10.50;;;;;;;;;;5075786;28;20200;-44
2022/05/31 11:24:01;;;;;;;13.00;9.83;;;;;;;;;;5073329;27;20255;-44
2022/05/31 11:26:30;;;;;;;13.47;8.63;;;;;;;;;;5070407;28;20170;-44
2022/05/31 11:29:02;;;;;;;11.37;8.03;;;;;;;;;;5070502;28;20204;-44
2022/05/31 11:31:44;;;;;;;12.97;8.83;;;;;;;;;;5075390;28;20186;-44
2022/05/31 11:34:10;;;;;;;14.23;9.17;;;;;;;;;;5074045;28;20263;-43
2022/05/31 11:36:44;;;;;;;11.57;8.50;;;;;;;;;;5066269;28;20174;-44
2022/05/31 11:39:30;;;;;;;10.03;6.80;;;;;;;;;;5073863;28;20169;-44
2022/05/31 11:42:08;;;;;;;9.20;6.20;;;;;;;;;;5075443;28;20176;-44
2022/05/31 11:44:43;;;;;;;11.03;6.40;;;;;;;;;;5070017;27;20178;-44
2022/05/31 11:47:12;;;;;;;13.83;6.60;;;;;;;;;;5069112;28;20471;-44
2022/05/31 11:49:44;;;;;;;11.30;5.97;;;;;;;;;;5080341;27;20179;-44
2022/05/31 11:52:10;;;;;;;10.00;5.70;;;;;;;;;;5074079;27;20175;-43
2022/05/31 11:55:25;;;;;;;10.00;6.73;;;;;;;;;;5070071;28;20198;-44
2022/05/31 11:57:39;;;;;;;10.57;6.27;;;;;;;;;;5071927;28;20182;-43
2022/05/31 12:00:07;;;;;;;8.30;5.80;;;;;;;;;;5069929;27;20472;-44
2022/05/31 12:02:37;;;;;;;9.43;6.67;;;;;;;;;;5068402;27;20257;-44
2022/05/31 12:05:20;;;;;;;9.07;6.80;;;;;;;;;;5073363;27;20204;-44
2022/05/31 12:07:56;;;;;;;11.80;7.53;;;;;;;;;;5069414;28;20799;-44
2022/05/31 12:10:27;;;;;;;10.77;6.93;;;;;;;;;;5070643;28;20415;-44
2022/05/31 12:12:55;;;;;;;13.47;6.93;;;;;;;;;;5071107;27;20609;-43
2022/05/31 12:15:28;;;;;;;9.70;6.73;;;;;;;;;;5067419;28;20638;-44
2022/05/31 12:18:20;;;;;;;11.77;7.53;;;;;;;;;;5071816;28;20766;-44
2022/05/31 12:20:49;;;;;;;13.57;8.07;;;;;;;;;;5047326;28;20203;-44
2022/05/31 12:23:34;;;;;;;12.17;7.60;;;;;;;;;;5069181;28;20841;-43
2022/05/31 12:26:01;;;;;;;11.27;6.90;;;;;;;;;;5073363;28;20550;-44
2022/05/31 12:28:27;;;;;;;11.13;7.67;;;;;;;;;;5067896;28;20228;-44
2022/05/31 12:30:53;;;;;;;13.50;6.90;;;;;;;;;;5069778;28;20208;-44
2022/05/31 12:33:43;;;;;;;12.87;7.00;;;;;;;;;;5073434;28;20182;-43
2022/05/31 12:36:10;;;;;;;11.33;8.10;;;;;;;;;;5068416;28;20588;-44
2022/05/31 12:38:59;;;;;;;11.93;8.03;;;;;;;;;;5070207;28;20178;-43
2022/05/31 12:41:35;;;;;;;12.17;7.50;;;;;;;;;;5073564;28;20237;-44
2022/05/31 12:44:01;;;;;;;13.37;7.47;;;;;;;;;;5072116;28;20177;-43
2022/05/31 12:46:33;;;;;;;10.97;6.90;;;;;;;;;;5068817;27;20289;-45
2022/05/31 12:49:01;;;;;;;11.17;6.23;;;;;;;;;;5071566;28;20181;-43
2022/05/31 12:51:28;;;;;;;9.27;6.10;;;;;;;;;;5067216;28;20736;-42
2022/05/31 12:54:01;;;;;;;9.23;5.63;;;;;;;;;;5032978;28;20419;-44
2022/05/31 12:56:36;;;;;;;8.93;5.97;;;;;;;;;;5043072;28;20466;-43
2022/05/31 12:59:03;;;;;;;11.23;7.47;;;;;;;;;;5052012;28;20224;-43
2022/05/31 13:01:29;;;;;;;9.73;6.50;;;;;;;;;;5047221;28;20675;-43
2022/05/31 13:03:57;;;;;;;9.27;6.87;;;;;;;;;;5049466;28;20202;-43
2022/05/31 13:06:34;;;;;;;12.67;7.70;;;;;;;;;;5054695;28;20626;-43
2022/05/31 13:09:02;;;;;;;11.87;6.77;;;;;;;;;;5052845;28;20171;-43
2022/05/31 13:19:44;;;;;;;13.63;5.93;;;;;;;;;;5051428;28;20260;-43
2022/05/31 13:22:19;;;;;;;12.30;6.10;;;;;;;;;;5050359;28;20639;-43
2022/05/31 13:25:02;;;;;;;7.87;5.47;;;;;;;;;;5048849;28;20176;-42
2022/05/31 13:27:29;;;;;;;11.40;5.57;;;;;;;;;;5050350;28;20182;-43
2022/05/31 13:30:01;;;;;;;10.90;5.87;;;;;;;;;;5063173;28;20216;-47
2022/05/31 13:32:31;;;;;;;10.80;6.43;;;;;;;;;;5047437;28;20172;-43
2022/05/31 13:34:57;;;;;;;11.60;6.40;;;;;;;;;;5051515;28;20195;-44
2022/05/31 13:37:23;;;;;;;10.17;6.10;;;;;;;;;;5052924;28;20172;-43
2022/05/31 13:39:50;;;;;;;8.47;5.50;;;;;;;;;;5051407;28;20987;-43
2022/05/31 13:42:18;;;;;;;13.67;6.50;;;;;;;;;;5050446;28;20171;-43
2022/05/31 13:44:44;;;;;;;9.53;5.73;;;;;;;;;;5053420;28;20196;-43
2022/05/31 13:47:12;;;;;;;9.57;5.60;;;;;;;;;;5049131;28;20232;-43
2022/05/31 13:49:38;;;;;;;11.07;5.87;;;;;;;;;;5049200;28;20170;-43
2022/05/31 13:52:05;;;;;;;10.10;6.97;;;;;;;;;;5047864;28;20210;-44
2022/05/31 13:54:39;;;;;;;11.53;6.40;;;;;;;;;;5049239;28;20669;-43
2022/05/31 13:57:05;;;;;;;8.43;5.13;;;;;;;;;;5049242;28;20172;-43
2022/05/31 13:59:31;;;;;;;9.70;5.73;;;;;;;;;;5049896;28;20586;-43
2022/05/31 14:01:57;;;;;;;10.90;5.73;;;;;;;;;;5049387;28;20371;-43
2022/05/31 14:04:28;;;;;;;9.60;5.87;;;;;;;;;;5042726;28;21020;-43
2022/05/31 14:06:56;;;;;;;11.40;5.70;;;;;;;;;;5052485;28;20200;-43
2022/05/31 14:09:30;;;;;;;14.23;6.70;;;;;;;;;;5050050;28;20211;-43
2022/05/31 14:11:57;;;;;;;7.40;5.30;;;;;;;;;;5049435;28;20167;-43
2022/05/31 14:14:29;;;;;;;9.03;5.20;;;;;;;;;;5050664;28;20277;-43
2022/05/31 14:16:57;;;;;;;13.67;6.63;;;;;;;;;;5046958;28;20171;-43
2022/05/31 14:19:25;;;;;;;12.90;6.13;;;;;;;;;;5045033;28;20600;-42
2022/05/31 14:21:53;;;;;;;9.33;5.53;;;;;;;;;;5051133;28;20199;-42
2022/05/31 14:24:23;;;;;;;11.13;6.10;;;;;;;;;;5051378;28;20172;-43
2022/05/31 14:26:50;;;;;;;10.83;5.87;;;;;;;;;;5049874;28;20172;-43
2022/05/31 14:29:23;;;;;;;9.57;5.27;;;;;;;;;;5050639;28;20167;-43
2022/05/31 14:31:51;;;;;;;9.63;5.43;;;;;;;;;;5052809;28;20912;-43
2022/05/31 14:34:20;;;;;;;12.13;6.00;;;;;;;;;;5051187;28;20576;-43
2022/05/31 14:36:48;;;;;;;13.73;6.07;;;;;;;;;;5063043;27;20626;-43
2022/05/31 14:39:16;;;;;;;11.50;5.90;;;;;;;;;;5052655;28;20260;-43
2022/05/31 14:41:43;;;;;;;12.00;5.60;;;;;;;;;;5054766;28;20170;-43
2022/05/31 14:44:29;;;;;;;12.47;5.73;;;;;;;;;;5046444;28;20418;-43
2022/05/31 14:47:06;;;;;;;9.23;5.13;;;;;;;;;;5050919;28;20172;-43
2022/05/31 14:49:39;;;;;;;13.50;6.67;;;;;;;;;;5052867;28;20945;-44
2022/05/31 14:52:19;;;;;;;9.73;5.63;;;;;;;;;;5051735;28;20229;-44
2022/05/31 14:54:47;;;;;;;8.57;5.27;;;;;;;;;;5051592;28;20838;-44
2022/05/31 14:57:20;;;;;;;12.50;5.37;;;;;;;;;;5055716;28;20419;-43
2022/05/31 14:59:47;;;;;;;10.53;5.30;;;;;;;;;;5048949;28;20171;-43
2022/05/31 15:02:18;;;;;;;10.77;6.57;;;;;;;;;;5054364;28;20251;-44
2022/05/31 15:04:50;;;;;;;10.23;5.53;;;;;;;;;;5052450;28;20187;-44